Terminal Aerodrome Forecast
Issued by NWS

Home | Current Version | Previous Version | Text Only | Print | Product List | Glossary On
Versions: 1 2 3 4 5 6 7 8 9 10 11 12 13 14 15 16 17
000
FTUS42 KILM 241120
TAFCRE
TAF
KCRE 241120Z 2412/2512 13010KT 5SM -SHRA OVC020
      TEMPO 2412/2414 1SM SHRA BKN006 OVC012
     FM241400 13012G19KT P6SM OVC015
      TEMPO 2415/2419 1SM +TSRA OVC004CB
     FM242100 12012G20KT 2SM +SHRA OVC007
     FM250400 15010G15KT 3SM SHRA BKN010
     FM250800 20010KT 4SM -SHRA BKN015
      TEMPO 2508/2512 P6SM BKN025=

USA.gov is the U.S. government's official web portal to all federal, state and local government web resources and services.